Time;durP1;ratioP1;P1;durP2;ratioP2;P2;SDS_P1;SDS_P2;PMS_P1;PMS_P2;Temp;Humidity;BMP_temperature;BMP_pressure;BME280_temperature;BME280_humidity;BME280_pressure;Samples;Min_cycle;Max_cycle;Signal;HPM_P1;HPM_P2
2022/08/18 00:02:14;;;;;;;6.13;4.45;;;;;;;22.40;51.62;100252.88;5033001;28;20049;-27
2022/08/18 00:04:40;;;;;;;4.90;4.50;;;;;;;22.36;51.73;100243.31;5031567;28;20449;-27
2022/08/18 00:07:07;;;;;;;4.90;4.40;;;;;;;22.35;51.88;100249.66;5033592;28;20421;-27
2022/08/18 00:09:34;;;;;;;4.55;4.10;;;;;;;22.33;51.56;100243.50;5035096;28;20472;-27
2022/08/18 00:12:02;;;;;;;4.95;4.32;;;;;;;22.25;51.99;100245.84;5033986;28;20564;-27
2022/08/18 00:14:27;;;;;;;5.43;5.03;;;;;;;22.24;51.86;100241.44;5030138;28;20021;-27
2022/08/18 00:16:52;;;;;;;4.60;4.20;;;;;;;22.22;52.60;100232.59;5027394;28;20025;-27
2022/08/18 00:19:18;;;;;;;4.78;4.38;;;;;;;22.17;52.76;100239.13;5031443;28;20039;-27
2022/08/18 00:21:43;;;;;;;7.88;4.68;;;;;;;22.12;53.00;100233.22;5031136;28;20033;-27
2022/08/18 00:24:08;;;;;;;5.45;5.05;;;;;;;22.12;52.84;100235.91;5031117;28;20021;-28
2022/08/18 00:26:34;;;;;;;4.95;4.50;;;;;;;22.09;53.20;100228.03;5029763;28;20029;-27
2022/08/18 00:28:59;;;;;;;5.32;4.82;;;;;;;22.02;52.46;100227.59;5031404;28;20033;-28
2022/08/18 00:31:25;;;;;;;5.20;4.70;;;;;;;22.01;52.79;100225.84;5032506;28;20088;-27
2022/08/18 00:33:51;;;;;;;5.38;4.88;;;;;;;21.96;52.71;100233.34;5032068;28;20040;-27
2022/08/18 00:36:16;;;;;;;5.28;4.88;;;;;;;21.95;52.57;100230.75;5032065;28;20025;-27
2022/08/18 00:38:41;;;;;;;6.20;4.72;;;;;;;21.92;52.41;100227.31;5030820;28;20147;-27
2022/08/18 00:41:07;;;;;;;5.35;4.82;;;;;;;21.91;52.49;100239.00;5031244;28;20087;-27
2022/08/18 00:43:42;;;;;;;5.20;4.80;;;;;;;21.85;52.05;100236.72;5032442;28;20022;-27
2022/08/18 00:46:12;;;;;;;5.90;5.20;;;;;;;21.81;51.41;100232.50;5029288;28;20036;-27
2022/08/18 00:48:38;;;;;;;6.80;5.60;;;;;;;21.72;51.73;100231.25;5033686;28;20028;-27
2022/08/18 00:51:09;;;;;;;4.82;4.43;;;;;;;21.63;51.76;100232.66;5028565;28;20030;-27
2022/08/18 00:53:44;;;;;;;5.22;4.82;;;;;;;21.61;51.84;100220.31;5032676;28;20026;-27
2022/08/18 00:56:14;;;;;;;5.10;4.68;;;;;;;21.58;51.88;100223.19;5031159;28;20433;-27
2022/08/18 00:58:50;;;;;;;4.73;4.33;;;;;;;21.54;52.23;100218.00;5027379;28;20029;-27
2022/08/18 01:01:18;;;;;;;5.03;4.60;;;;;;;21.53;52.51;100216.28;5013676;28;20391;-27
2022/08/18 01:03:46;;;;;;;4.85;4.45;;;;;;;21.46;52.43;100223.00;5024258;28;20072;-27
2022/08/18 01:06:27;;;;;;;4.97;4.57;;;;;;;21.41;52.45;100212.53;5026830;28;20395;-27
2022/08/18 01:08:54;;;;;;;5.10;4.70;;;;;;;21.38;52.19;100209.22;5028046;28;20029;-27
2022/08/18 01:11:20;;;;;;;5.35;4.85;;;;;;;21.36;51.87;100213.78;5033565;28;20450;-27
2022/08/18 01:13:45;;;;;;;5.05;4.65;;;;;;;21.30;51.73;100215.03;5029424;28;20025;-27
2022/08/18 01:21:52;;;;;;;4.80;4.25;;;;;;;21.17;51.25;100214.06;5031636;28;20090;-27
2022/08/18 01:25:58;;;;;;;9.63;4.38;;;;;;;21.08;51.10;100205.66;5031593;28;20028;-27
2022/08/18 01:27:30;;;;;;;5.23;4.83;;;;;;;20.98;50.95;100204.47;5027094;28;20026;-27
2022/08/18 01:29:57;;;;;;;5.22;4.80;;;;;;;20.91;51.13;100208.47;5029841;28;20021;-27
2022/08/18 01:32:23;;;;;;;6.30;4.78;;;;;;;20.85;50.94;100207.00;5030665;28;20068;-27
2022/08/18 01:34:50;;;;;;;4.88;4.47;;;;;;;20.82;50.86;100208.03;5032181;28;20060;-27
2022/08/18 01:37:18;;;;;;;5.43;4.10;;;;;;;20.76;51.03;100206.59;5026430;28;20030;-27
2022/08/18 01:39:44;;;;;;;5.22;4.72;;;;;;;20.73;50.90;100206.78;5029719;28;20079;-27
2022/08/18 01:42:11;;;;;;;4.38;4.07;;;;;;;20.68;50.70;100214.22;5029570;28;20026;-30
2022/08/18 01:44:40;;;;;;;5.03;4.60;;;;;;;20.61;50.87;100207.50;5030721;28;20542;-29
2022/08/18 01:47:06;;;;;;;6.60;4.50;;;;;;;20.57;50.94;100212.16;5030471;28;20464;-29
2022/08/18 01:49:32;;;;;;;5.15;4.65;;;;;;;20.51;51.04;100208.03;5014140;28;20108;-29
2022/08/18 01:51:57;;;;;;;4.72;4.32;;;;;;;20.46;51.52;100214.59;5028266;28;20117;-29
2022/08/18 01:54:23;;;;;;;4.85;4.05;;;;;;;20.42;52.02;100219.28;5031692;28;20036;-29
2022/08/18 01:56:49;;;;;;;5.80;4.40;;;;;;;20.37;51.99;100211.50;5031148;28;20021;-29
2022/08/18 01:59:14;;;;;;;5.15;4.75;;;;;;;20.32;52.40;100213.59;5029939;28;20326;-29
2022/08/18 02:01:42;;;;;;;4.60;4.20;;;;;;;20.31;52.56;100209.19;5029930;28;20504;-29
2022/08/18 02:04:08;;;;;;;5.32;4.60;;;;;;;20.32;53.11;100212.72;5028307;28;20025;-29
2022/08/18 02:06:33;;;;;;;5.03;4.32;;;;;;;20.30;53.25;100209.28;5026331;28;20087;-29
2022/08/18 02:08:59;;;;;;;5.25;4.75;;;;;;;20.28;53.42;100206.72;5030989;28;20051;-29
2022/08/18 02:11:24;;;;;;;5.28;4.38;;;;;;;20.24;53.41;100210.50;5028789;28;20419;-29
2022/08/18 02:13:49;;;;;;;4.90;4.47;;;;;;;20.24;53.33;100210.50;5028671;28;20037;-29
2022/08/18 02:16:15;;;;;;;8.65;4.45;;;;;;;20.22;53.18;100196.34;5030426;28;20060;-29
2022/08/18 02:18:41;;;;;;;4.93;4.55;;;;;;;20.19;53.29;100212.56;5026818;28;20033;-29
2022/08/18 02:21:14;;;;;;;4.53;4.13;;;;;;;20.20;53.40;100203.56;5036507;28;20471;-29
2022/08/18 02:23:42;;;;;;;5.95;4.60;;;;;;;20.20;53.67;100214.28;5028257;28;20611;-29
2022/08/18 02:26:12;;;;;;;4.60;4.20;;;;;;;20.19;53.73;100209.91;5034115;28;20036;-29
2022/08/18 02:28:37;;;;;;;4.93;4.30;;;;;;;20.17;53.51;100220.69;5027385;28;20395;-28
2022/08/18 02:31:13;;;;;;;4.88;4.47;;;;;;;20.13;53.62;100214.66;5027902;28;20033;-28
2022/08/18 02:33:39;;;;;;;8.38;5.57;;;;;;;20.10;53.91;100213.94;5021916;28;20099;-27
2022/08/18 02:36:05;;;;;;;4.80;4.43;;;;;;;20.09;53.77;100215.78;5023089;28;20030;-28
2022/08/18 02:38:31;;;;;;;7.63;4.68;;;;;;;20.09;53.97;100218.47;5030585;28;20108;-27
2022/08/18 02:40:59;;;;;;;5.35;4.85;;;;;;;20.07;54.05;100212.31;5029797;28;20176;-27
2022/08/18 02:43:25;;;;;;;5.82;5.00;;;;;;;20.09;53.56;100217.59;5031888;28;20068;-27
2022/08/18 02:45:51;;;;;;;5.05;4.63;;;;;;;20.04;53.96;100219.66;5029197;28;20029;-27
2022/08/18 02:48:21;;;;;;;5.15;4.68;;;;;;;20.04;54.00;100220.50;5030094;28;20387;-28
2022/08/18 02:50:46;;;;;;;4.90;4.32;;;;;;;20.02;54.22;100209.03;5029934;28;20121;-27
2022/08/18 02:53:23;;;;;;;5.82;5.10;;;;;;;20.02;54.04;100210.84;5036001;28;20163;-27
2022/08/18 02:55:49;;;;;;;4.68;4.28;;;;;;;20.00;54.09;100206.47;5028603;28;20551;-27
2022/08/18 02:58:14;;;;;;;4.78;4.43;;;;;;;19.97;54.14;100205.72;5027533;28;20064;-27
2022/08/18 03:00:39;;;;;;;7.45;5.25;;;;;;;19.99;54.31;100212.75;5026765;28;20506;-28
2022/08/18 03:03:05;;;;;;;6.45;4.80;;;;;;;19.95;54.52;100215.66;5037814;28;20028;-27
2022/08/18 03:05:30;;;;;;;5.10;4.68;;;;;;;19.92;54.41;100216.69;5029053;28;20548;-27
2022/08/18 03:07:56;;;;;;;5.20;4.80;;;;;;;19.95;54.43;100218.34;5028403;28;20034;-27
2022/08/18 03:10:21;;;;;;;5.18;4.68;;;;;;;19.92;54.58;100214.03;5034962;28;20104;-27
2022/08/18 03:12:46;;;;;;;5.50;5.00;;;;;;;19.90;54.62;100217.75;5028426;28;20028;-28
2022/08/18 03:15:12;;;;;;;6.15;4.88;;;;;;;19.89;54.51;100222.22;5028618;28;20487;-27
2022/08/18 03:17:38;;;;;;;5.45;5.05;;;;;;;19.88;54.44;100225.84;5030381;28;20052;-27
2022/08/18 03:20:04;;;;;;;4.80;4.40;;;;;;;19.85;54.52;100216.16;5036509;28;20040;-27
2022/08/18 03:22:30;;;;;;;5.88;5.15;;;;;;;19.83;54.32;100215.41;5038600;28;20034;-27
2022/08/18 03:24:56;;;;;;;5.53;4.95;;;;;;;19.82;54.18;100227.06;5030574;28;20068;-27
2022/08/18 03:27:21;;;;;;;5.60;4.90;;;;;;;19.81;54.28;100225.31;5010625;28;20111;-27
2022/08/18 03:29:46;;;;;;;5.13;4.63;;;;;;;19.83;54.50;100223.41;5028968;28;20025;-28
2022/08/18 03:32:12;;;;;;;10.68;5.50;;;;;;;19.82;54.42;100227.06;5026685;28;20038;-27
2022/08/18 03:34:37;;;;;;;5.25;4.80;;;;;;;19.79;54.42;100240.59;5028212;28;20092;-28
2022/08/18 03:37:03;;;;;;;5.85;5.00;;;;;;;19.80;55.00;100245.00;5030299;28;20101;-27
2022/08/18 03:39:28;;;;;;;5.03;4.53;;;;;;;19.76;54.71;100240.75;5030095;28;20026;-28
2022/08/18 03:41:55;;;;;;;5.97;4.95;;;;;;;19.74;54.46;100234.66;5026567;28;20024;-28
2022/08/18 03:44:21;;;;;;;5.35;4.85;;;;;;;19.70;54.35;100244.63;5029422;28;20025;-27
2022/08/18 03:46:46;;;;;;;4.60;4.20;;;;;;;19.72;54.43;100240.06;5028376;28;20040;-28
2022/08/18 03:49:12;;;;;;;5.03;4.60;;;;;;;19.73;54.47;100240.91;5025572;28;20037;-28
2022/08/18 03:51:42;;;;;;;4.93;4.53;;;;;;;19.74;53.97;100234.66;5027740;28;20034;-28
2022/08/18 03:54:08;;;;;;;5.32;4.47;;;;;;;19.71;53.92;100234.81;5027461;28;20029;-27
2022/08/18 03:56:37;;;;;;;5.63;5.13;;;;;;;19.68;54.19;100234.97;5033888;28;20402;-27
2022/08/18 03:59:06;;;;;;;5.85;5.35;;;;;;;19.65;54.06;100235.13;5039005;28;20103;-27
2022/08/18 04:01:35;;;;;;;5.45;5.00;;;;;;;19.63;53.92;100231.69;5032186;28;20096;-28
2022/08/18 04:04:03;;;;;;;7.25;4.93;;;;;;;19.59;54.46;100239.00;5033056;28;20025;-26
2022/08/18 04:06:43;;;;;;;5.63;5.13;;;;;;;19.56;54.65;100248.06;5032548;28;20108;-27
2022/08/18 04:09:12;;;;;;;4.90;4.50;;;;;;;19.54;54.92;100238.41;5034461;28;20498;-27
2022/08/18 04:11:38;;;;;;;7.00;5.30;;;;;;;19.56;54.55;100239.16;5032148;28;20037;-27
2022/08/18 04:14:04;;;;;;;6.95;5.28;;;;;;;19.52;54.57;100246.50;5041909;28;20037;-27
2022/08/18 04:16:31;;;;;;;5.53;5.03;;;;;;;19.52;54.64;100246.50;5037942;28;20135;-27
2022/08/18 04:19:00;;;;;;;5.45;5.05;;;;;;;19.53;54.63;100245.53;5032783;28;20021;-27
2022/08/18 04:21:26;;;;;;;5.40;4.90;;;;;;;19.52;54.87;100249.16;5032435;28;20021;-27
2022/08/18 04:23:51;;;;;;;5.63;5.00;;;;;;;19.47;54.85;100252.09;5032385;28;20075;-27
2022/08/18 04:26:17;;;;;;;4.88;4.47;;;;;;;19.47;54.81;100248.53;5031024;28;20035;-27
2022/08/18 04:28:42;;;;;;;5.38;4.82;;;;;;;19.46;54.63;100246.81;5033772;28;20029;-27
2022/08/18 04:31:10;;;;;;;5.28;4.88;;;;;;;19.48;54.53;100255.63;5041826;28;20036;-27
2022/08/18 04:33:36;;;;;;;6.32;5.72;;;;;;;19.52;55.34;100250.97;5022723;28;20364;-28
2022/08/18 04:36:15;;;;;;;6.82;6.15;;;;;;;19.61;55.52;100253.16;5032966;28;20058;-28
2022/08/18 04:38:43;;;;;;;6.65;6.05;;;;;;;19.62;54.84;100246.88;5025575;28;20040;-27
2022/08/18 04:41:11;;;;;;;6.30;5.70;;;;;;;19.69;55.02;100245.59;5031582;28;20029;-28
2022/08/18 04:43:37;;;;;;;7.00;5.70;;;;;;;19.68;55.02;100245.66;5022245;28;20025;-27
2022/08/18 04:46:03;;;;;;;5.38;4.93;;;;;;;19.78;55.40;100249.56;5030375;28;20032;-27
2022/08/18 04:48:36;;;;;;;7.30;6.57;;;;;;;19.73;55.40;100249.81;5031502;28;20025;-28
2022/08/18 04:51:16;;;;;;;6.20;5.70;;;;;;;19.78;55.36;100252.25;5033532;28;20025;-27
2022/08/18 04:53:45;;;;;;;6.90;6.22;;;;;;;19.79;56.14;100267.34;5026084;28;20028;-28
2022/08/18 04:56:25;;;;;;;7.40;6.75;;;;;;;19.81;56.67;100267.28;5040532;28;20021;-27
2022/08/18 04:59:02;;;;;;;7.30;6.60;;;;;;;19.88;56.87;100272.19;5033925;28;20083;-27
2022/08/18 05:01:30;;;;;;;7.40;6.70;;;;;;;19.88;56.79;100264.16;5041412;28;20261;-27
2022/08/18 05:03:57;;;;;;;7.70;6.90;;;;;;;19.97;55.82;100261.91;5033294;28;20025;-27
2022/08/18 05:06:24;;;;;;;7.78;7.00;;;;;;;19.99;55.93;100271.66;5040870;28;20364;-27
2022/08/18 05:08:51;;;;;;;8.68;6.68;;;;;;;20.06;55.18;100266.81;5045930;28;20502;-27
2022/08/18 05:11:16;;;;;;;8.18;7.38;;;;;;;20.02;55.81;100270.59;5041607;28;20471;-28
2022/08/18 05:13:41;;;;;;;8.18;7.38;;;;;;;20.07;55.96;100273.03;5044612;28;20027;-27
2022/08/18 05:16:07;;;;;;;7.85;7.15;;;;;;;20.10;55.93;100284.41;5045543;28;20056;-26
2022/08/18 05:18:37;;;;;;;7.90;7.10;;;;;;;20.12;55.82;100282.53;5033391;28;20039;-27
2022/08/18 05:21:03;;;;;;;9.00;7.60;;;;;;;20.19;57.39;100276.81;5032353;28;20032;-27
2022/08/18 05:23:28;;;;;;;8.20;7.43;;;;;;;20.19;55.63;100276.81;5039498;28;20386;-27
2022/08/18 05:25:58;;;;;;;8.15;7.35;;;;;;;20.26;56.11;100278.22;5041712;28;20030;-27
2022/08/18 05:28:24;;;;;;;8.00;7.25;;;;;;;20.28;55.76;100280.81;5042804;28;20032;-27
2022/08/18 05:30:49;;;;;;;8.13;7.32;;;;;;;20.29;55.53;100277.16;5040721;28;20044;-27
2022/08/18 05:33:14;;;;;;;8.77;7.82;;;;;;;20.31;55.84;100281.47;5014719;28;20056;-27
2022/08/18 05:35:44;;;;;;;9.43;8.45;;;;;;;20.35;56.00;100276.81;5032640;28;20080;-28
2022/08/18 05:38:10;;;;;;;10.32;8.75;;;;;;;20.39;56.34;100283.72;5023977;28;20079;-27
2022/08/18 05:40:36;;;;;;;9.38;8.48;;;;;;;20.46;55.97;100284.25;5032712;28;20029;-27
2022/08/18 05:43:03;;;;;;;9.25;8.25;;;;;;;20.48;56.13;100282.34;5031417;28;20029;-28
2022/08/18 05:45:29;;;;;;;9.18;8.38;;;;;;;20.52;56.20;100289.25;5031425;28;20539;-27
2022/08/18 05:47:58;;;;;;;10.13;9.00;;;;;;;20.53;56.14;100299.00;5030858;28;20139;-27
2022/08/18 05:50:24;;;;;;;11.50;9.38;;;;;;;20.56;56.54;100284.56;5050969;28;20029;-27
2022/08/18 05:53:08;;;;;;;10.68;9.57;;;;;;;20.59;57.69;100295.13;5037817;28;20517;-27
2022/08/18 05:58:47;;;;;;;10.80;9.73;;;;;;;20.64;57.02;100285.88;5030509;28;20039;-27
2022/08/18 06:01:17;;;;;;;13.70;11.30;;;;;;;20.73;57.71;100281.78;5034149;28;20435;-27
2022/08/18 06:03:47;;;;;;;11.40;10.32;;;;;;;20.78;56.35;100278.84;5047661;28;20035;-27
2022/08/18 06:06:19;;;;;;;12.13;10.85;;;;;;;20.81;57.29;100278.66;5042745;28;20065;-27
2022/08/18 06:08:52;;;;;;;12.05;10.40;;;;;;;20.87;57.45;100278.31;5037954;28;20029;-27
2022/08/18 06:11:17;;;;;;;13.10;10.77;;;;;;;20.91;56.62;100288.88;5029514;28;20079;-27
2022/08/18 06:13:42;;;;;;;14.48;11.80;;;;;;;20.94;57.15;100296.75;5025073;28;20029;-27
2022/08/18 06:16:37;;;;;;;15.05;12.52;;;;;;;21.01;57.17;100293.59;5021779;28;20027;-27
2022/08/18 06:19:33;;;;;;;13.82;12.43;;;;;;;21.08;58.70;100291.44;5016251;28;20057;-28
2022/08/18 06:22:14;;;;;;;15.30;12.60;;;;;;;21.13;58.05;100297.38;5029592;28;20391;-27
2022/08/18 06:24:51;;;;;;;;;;;;;;;21.19;58.85;100303.31;5046352;28;20486;-27
2022/08/18 06:27:39;;;;;;;17.27;13.52;;;;;;;21.22;57.92;100300.44;5050323;28;19912;-27
2022/08/18 06:30:18;;;;;;;15.25;12.48;;;;;;;21.27;57.25;100296.53;5034617;28;20506;-27
2022/08/18 06:32:53;;;;;;;17.33;13.75;;;;;;;21.32;58.59;100303.44;5037634;28;20024;-27
2022/08/18 06:35:40;;;;;;;14.98;13.48;;;;;;;21.38;57.12;100308.44;5051985;28;20025;-27
2022/08/18 06:38:47;;;;;;;15.70;14.15;;;;;;;21.44;58.98;100301.84;5050232;28;20029;-27
2022/08/18 06:41:19;;;;;;;16.42;13.95;;;;;;;21.50;59.09;100304.13;5011753;28;20099;-27
2022/08/18 06:43:57;;;;;;;15.85;14.02;;;;;;;21.56;58.02;100310.94;5030420;28;20087;-27
2022/08/18 06:46:32;;;;;;;18.10;16.20;;;;;;;21.62;57.59;100310.56;5033807;28;20036;-27
2022/08/18 06:49:03;;;;;;;18.23;16.33;;;;;;;21.66;59.18;100307.63;5025075;28;20040;-27
2022/08/18 06:51:28;;;;;;;18.10;15.48;;;;;;;21.72;58.13;100311.75;5031435;28;20380;-27
2022/08/18 06:54:00;;;;;;;17.45;15.68;;;;;;;21.75;58.73;100311.59;5032858;28;20025;-27
2022/08/18 06:56:44;;;;;;;19.33;15.80;;;;;;;21.78;59.96;100310.53;5037848;28;20361;-27
2022/08/18 06:59:20;;;;;;;17.40;15.68;;;;;;;21.87;58.88;100318.00;5024762;28;20079;-27
2022/08/18 07:01:49;;;;;;;18.17;16.30;;;;;;;21.94;57.75;100326.53;5034557;28;20029;-28
2022/08/18 07:04:37;;;;;;;17.55;15.63;;;;;;;21.96;58.55;100324.63;5030183;28;20033;-27
2022/08/18 07:07:36;;;;;;;18.83;15.35;;;;;;;21.99;59.55;100329.78;5027785;28;20041;-28
2022/08/18 07:10:04;;;;;;;18.35;16.08;;;;;;;22.04;59.53;100326.84;5025751;28;20035;-28
2022/08/18 07:12:29;;;;;;;16.92;14.95;;;;;;;22.10;57.76;100321.06;5035513;28;20036;-27
2022/08/18 07:14:58;;;;;;;18.77;15.65;;;;;;;22.14;60.09;100325.25;5037317;28;20021;-27
2022/08/18 07:17:27;;;;;;;17.70;15.82;;;;;;;22.18;59.95;100317.88;5031995;28;20087;-27
2022/08/18 07:20:09;;;;;;;18.00;16.20;;;;;;;22.28;57.78;100329.75;5030788;28;20037;-27
2022/08/18 07:22:58;;;;;;;18.73;15.30;;;;;;;22.34;58.93;100323.13;5028251;28;20114;-27
2022/08/18 07:25:29;;;;;;;23.48;17.73;;;;;;;22.35;59.70;100330.25;5039668;28;20455;-27
2022/08/18 07:27:55;;;;;;;16.83;15.02;;;;;;;22.42;59.00;100325.31;5024855;28;20078;-27
2022/08/18 07:30:20;;;;;;;16.48;14.80;;;;;;;22.46;57.82;100324.16;5033368;28;20029;-27
2022/08/18 07:32:52;;;;;;;17.63;15.60;;;;;;;22.53;57.95;100327.31;5044013;28;20028;-27
2022/08/18 07:35:22;;;;;;;17.92;15.77;;;;;;;22.51;59.67;100330.09;5015379;28;20022;-27
2022/08/18 07:37:53;;;;;;;16.58;14.50;;;;;;;22.57;58.53;100328.84;5015217;28;20018;-27
2022/08/18 07:40:41;;;;;;;16.65;14.85;;;;;;;22.60;59.10;100328.66;5013788;28;20101;-28
2022/08/18 07:43:16;;;;;;;16.00;14.15;;;;;;;22.65;58.92;100328.38;5016514;28;20064;-27
2022/08/18 07:45:45;;;;;;;16.73;14.55;;;;;;;22.66;58.65;100333.63;5034582;28;20105;-27
2022/08/18 07:48:13;;;;;;;16.83;15.00;;;;;;;22.71;59.06;100333.34;5033599;28;20041;-27
2022/08/18 07:50:47;;;;;;;17.85;15.15;;;;;;;22.75;58.48;100339.38;5036789;28;20020;-28
2022/08/18 07:53:53;;;;;;;17.48;15.68;;;;;;;22.81;58.19;100353.25;5029839;28;20029;-27
2022/08/18 07:56:51;;;;;;;15.70;14.18;;;;;;;22.91;57.89;100358.03;5039455;28;20408;-27
2022/08/18 07:59:28;;;;;;;15.05;13.55;;;;;;;22.96;56.92;100365.78;5009193;28;20214;-27
2022/08/18 08:02:41;;;;;;;17.52;13.55;;;;;;;23.00;56.97;100378.06;5013582;28;20380;-27
2022/08/18 08:05:18;;;;;;;14.90;13.48;;;;;;;23.04;56.63;100374.22;5012418;28;20080;-28
2022/08/18 08:07:50;;;;;;;15.35;13.63;;;;;;;23.05;58.26;100387.53;5035650;28;20383;-27
2022/08/18 08:10:25;;;;;;;15.77;14.05;;;;;;;23.07;57.97;100382.94;5016753;28;20060;-27
2022/08/18 08:13:01;;;;;;;15.88;14.13;;;;;;;23.12;58.34;100389.84;5034304;28;20034;-27
2022/08/18 08:15:52;;;;;;;16.08;14.07;;;;;;;23.17;58.44;100391.25;5032044;28;20025;-27
2022/08/18 08:18:41;;;;;;;14.10;12.90;;;;;;;23.24;57.83;100380.09;5034474;28;20033;-28
2022/08/18 08:21:08;;;;;;;15.35;13.70;;;;;;;23.27;57.32;100388.78;5049463;28;20021;-27
2022/08/18 08:23:43;;;;;;;14.70;13.18;;;;;;;23.32;57.65;100393.88;5032560;28;20034;-27
2022/08/18 08:26:15;;;;;;;13.63;12.23;;;;;;;23.37;56.89;100389.06;5032948;28;20462;-27
2022/08/18 08:29:11;;;;;;;13.88;12.43;;;;;;;23.42;56.11;100381.56;5036278;28;20378;-28
2022/08/18 08:31:48;;;;;;;12.75;11.65;;;;;;;23.45;56.48;100397.47;5040545;28;20037;-27
2022/08/18 08:34:15;;;;;;;13.73;12.32;;;;;;;23.50;57.17;100404.41;5048957;28;20036;-27
2022/08/18 08:36:44;;;;;;;14.13;12.82;;;;;;;23.51;57.15;100400.72;5024038;28;20037;-27
2022/08/18 08:39:19;;;;;;;14.60;13.05;;;;;;;23.58;56.34;100397.50;5027382;28;20434;-27
2022/08/18 08:42:17;;;;;;;13.85;12.52;;;;;;;23.58;57.34;100388.59;5038569;28;20021;-27
2022/08/18 08:45:08;;;;;;;13.57;12.40;;;;;;;23.62;57.44;100381.16;5023566;28;20040;-27
2022/08/18 08:47:44;;;;;;;13.85;12.45;;;;;;;23.67;57.23;100374.47;5029492;28;20045;-27
2022/08/18 08:50:16;;;;;;;13.38;12.07;;;;;;;23.70;57.35;100370.69;5030418;28;20124;-28
2022/08/18 08:53:05;;;;;;;14.00;12.80;;;;;;;23.73;56.62;100370.50;5025072;28;20021;-28
2022/08/18 08:55:34;;;;;;;15.40;13.80;;;;;;;23.76;57.26;100372.97;5038364;28;20080;-27
2022/08/18 08:58:15;;;;;;;14.75;13.32;;;;;;;23.77;57.26;100365.78;5029536;28;20048;-27
2022/08/18 09:00:41;;;;;;;12.65;11.55;;;;;;;23.80;56.60;100360.16;5026562;28;20064;-27
2022/08/18 09:03:17;;;;;;;13.50;12.00;;;;;;;23.81;57.33;100356.50;5012860;28;20087;-28
2022/08/18 09:05:55;;;;;;;13.45;12.15;;;;;;;23.81;57.02;100353.81;5033950;28;20029;-27
2022/08/18 09:08:24;;;;;;;13.48;11.95;;;;;;;23.83;56.58;100366.19;5042037;28;20033;-28
2022/08/18 09:11:01;;;;;;;13.15;11.95;;;;;;;23.87;56.29;100372.22;5052047;28;20491;-29
2022/08/18 09:14:01;;;;;;;12.63;11.43;;;;;;;23.87;56.95;100366.81;5041607;28;20034;-28
2022/08/18 09:17:01;;;;;;;13.02;11.82;;;;;;;23.88;55.90;100365.88;5029870;28;20487;-28
2022/08/18 09:19:52;;;;;;;11.93;10.82;;;;;;;23.91;55.66;100367.50;5036317;28;20116;-27
2022/08/18 09:22:35;;;;;;;;;;;;;;;23.91;55.69;100372.88;5045258;28;20029;-27
2022/08/18 09:25:01;;;;;;;13.15;11.88;;;;;;;23.91;56.15;100376.41;5050031;28;19915;-27
2022/08/18 09:27:35;;;;;;;11.70;10.52;;;;;;;23.91;56.01;100362.94;5035597;28;20018;-27
2022/08/18 09:30:03;;;;;;;12.63;11.52;;;;;;;23.90;56.33;100355.84;5029653;28;20402;-27
2022/08/18 09:32:38;;;;;;;13.15;11.95;;;;;;;23.90;56.24;100345.06;5050185;28;20021;-28
2022/08/18 09:35:30;;;;;;;12.88;11.65;;;;;;;23.95;56.45;100347.44;5031093;28;20447;-27
2022/08/18 09:44:08;;;;;;;13.45;12.02;;;;;;;23.96;56.49;100355.44;5031187;28;20037;-27
2022/08/18 09:46:42;;;;;;;12.90;11.75;;;;;;;24.02;55.92;100364.03;5040040;28;20052;-27
2022/08/18 09:49:26;;;;;;;12.18;10.88;;;;;;;24.05;56.17;100371.91;5041005;28;20104;-27
2022/08/18 09:51:56;;;;;;;13.25;12.05;;;;;;;24.06;55.97;100371.78;5038503;28;20034;-27
2022/08/18 09:54:23;;;;;;;13.95;12.55;;;;;;;24.08;55.98;100360.91;5032846;28;20387;-27
2022/08/18 09:56:48;;;;;;;12.82;11.18;;;;;;;24.08;56.16;100366.28;5046792;28;20498;-27
2022/08/18 09:59:35;;;;;;;12.67;11.43;;;;;;;24.12;56.30;100373.22;5031465;28;20518;-27
2022/08/18 10:02:06;;;;;;;12.93;11.73;;;;;;;24.13;56.20;100374.94;5022582;28;20488;-27
2022/08/18 10:04:33;;;;;;;14.35;12.00;;;;;;;24.15;55.98;100373.00;5040521;28;20029;-27
2022/08/18 10:07:20;;;;;;;13.25;11.60;;;;;;;24.16;55.94;100372.03;5034751;28;20553;-27
2022/08/18 10:10:22;;;;;;;12.85;11.43;;;;;;;24.19;55.96;100377.19;5028909;28;20030;-28
2022/08/18 10:12:50;;;;;;;12.48;11.38;;;;;;;24.20;56.24;100368.13;5035003;28;20051;-28
2022/08/18 10:15:54;;;;;;;12.65;11.23;;;;;;;24.25;55.97;100383.09;5037631;28;20083;-27
2022/08/18 10:18:24;;;;;;;13.20;11.75;;;;;;;24.27;55.75;100383.88;5020279;28;20048;-27
2022/08/18 10:20:52;;;;;;;;;;;;;;;24.28;56.09;100385.59;5029347;28;20033;-28
2022/08/18 10:23:55;;;;;;;11.82;10.82;;;;;;;24.30;56.32;100389.88;5030026;28;20497;-27
2022/08/18 10:26:29;;;;;;;13.40;12.13;;;;;;;24.30;56.50;100389.00;5038891;28;20025;-27
2022/08/18 10:28:56;;;;;;;12.23;10.98;;;;;;;24.34;56.78;100398.63;5045381;28;20568;-27
2022/08/18 10:31:22;;;;;;;12.77;11.68;;;;;;;24.35;57.20;100389.56;5032260;28;20033;-27
2022/08/18 10:34:03;;;;;;;12.93;11.73;;;;;;;24.44;56.47;100394.28;5036226;28;20097;-27
2022/08/18 10:36:39;;;;;;;14.52;13.07;;;;;;;24.50;56.90;100394.81;5047248;28;20028;-27
2022/08/18 10:39:11;;;;;;;13.45;12.05;;;;;;;24.52;57.19;100392.84;5025214;28;20031;-27
2022/08/18 10:41:47;;;;;;;13.02;11.82;;;;;;;24.55;56.77;100395.34;5038591;28;20071;-27
2022/08/18 10:44:13;;;;;;;13.68;12.38;;;;;;;24.59;57.06;100405.78;5027424;28;20040;-27
2022/08/18 10:46:42;;;;;;;13.25;11.98;;;;;;;24.69;56.64;100400.59;5040433;28;20025;-28
2022/08/18 10:49:11;;;;;;;13.20;11.20;;;;;;;24.83;56.02;100398.69;5014147;28;20036;-27
2022/08/18 10:51:52;;;;;;;12.63;11.23;;;;;;;24.92;55.71;100403.44;5039387;28;20018;-27
2022/08/18 10:54:27;;;;;;;12.48;11.18;;;;;;;24.98;55.38;100411.06;5028400;28;20033;-27
2022/08/18 10:57:09;;;;;;;13.30;11.93;;;;;;;25.09;54.94;100407.56;5034696;28;20044;-27
2022/08/18 10:59:42;;;;;;;12.10;10.95;;;;;;;25.15;55.19;100408.97;5033408;28;20051;-27
2022/08/18 11:02:13;;;;;;;11.38;10.32;;;;;;;25.22;55.01;100409.34;5046451;28;20606;-27
2022/08/18 11:04:45;;;;;;;13.35;11.00;;;;;;;25.26;55.11;100407.25;5034689;28;20455;-27
2022/08/18 11:07:14;;;;;;;12.10;10.80;;;;;;;25.34;54.80;100416.50;5034069;28;20033;-28
2022/08/18 11:09:41;;;;;;;10.80;9.85;;;;;;;25.46;54.16;100409.31;5034480;28;20036;-27
2022/08/18 11:12:07;;;;;;;11.25;10.32;;;;;;;25.53;54.16;100408.81;5034219;28;20025;-27
2022/08/18 11:14:32;;;;;;;12.05;10.90;;;;;;;25.59;53.48;100409.25;5034006;28;20021;-27
2022/08/18 11:17:09;;;;;;;12.27;11.07;;;;;;;25.62;53.42;100414.44;5034239;28;20033;-27
2022/08/18 11:19:39;;;;;;;12.10;10.75;;;;;;;25.70;53.55;100408.41;5042097;28;20761;-27
2022/08/18 11:22:05;;;;;;;12.52;10.77;;;;;;;25.78;53.32;100406.97;5035578;28;20037;-27
2022/08/18 11:24:34;;;;;;;12.60;11.40;;;;;;;25.84;52.92;100407.34;5035391;28;20029;-27
2022/08/18 11:27:16;;;;;;;12.73;11.30;;;;;;;25.91;52.69;100401.47;5034791;28;20029;-27
2022/08/18 11:29:41;;;;;;;12.82;11.55;;;;;;;25.95;52.63;100411.03;5033645;28;20382;-27
2022/08/18 11:32:45;;;;;;;12.68;10.25;;;;;;;25.96;52.18;100407.34;5017246;28;20116;-27
2022/08/18 11:35:17;;;;;;;12.88;11.68;;;;;;;25.95;52.06;100409.22;5019391;28;20040;-27
2022/08/18 11:37:55;;;;;;;13.13;11.30;;;;;;;25.96;52.30;100410.94;5033770;28;20526;-27
2022/08/18 11:40:56;;;;;;;12.45;11.25;;;;;;;25.86;52.56;100400.00;5035126;28;20049;-27
2022/08/18 11:43:30;;;;;;;13.18;12.05;;;;;;;25.91;52.49;100405.00;5018132;28;20029;-27
2022/08/18 11:46:00;;;;;;;12.23;10.98;;;;;;;25.93;51.99;100403.06;5042752;28;20025;-27
2022/08/18 11:48:44;;;;;;;14.95;11.23;;;;;;;25.95;51.78;100398.41;5034422;28;20033;-27
2022/08/18 11:51:16;;;;;;;12.57;11.32;;;;;;;25.94;51.86;100402.06;5034669;28;20503;-27
2022/08/18 11:53:48;;;;;;;12.50;11.20;;;;;;;25.97;52.01;100401.84;5028853;28;20036;-27
2022/08/18 11:56:13;;;;;;;12.32;11.23;;;;;;;25.94;51.74;100385.88;5048741;28;20443;-27
2022/08/18 11:58:44;;;;;;;12.90;11.77;;;;;;;25.92;51.89;100387.84;5054078;28;20063;-27